Time;durP1;ratioP1;P1;durP2;ratioP2;P2;SDS_P1;SDS_P2;PMS_P1;PMS_P2;Temp;Humidity;BMP_temperature;BMP_pressure;BME280_temperature;BME280_humidity;BME280_pressure;Samples;Min_cycle;Max_cycle;Signal;HPM_P1;HPM_P2
2022/05/13 00:02:08;;;;;;;4.35;1.02;;;11.30;99.90;;;;;;5030683;28;20112;-69
2022/05/13 00:04:34;;;;;;;4.57;0.88;;;11.20;99.90;;;;;;5030763;28;20025;-69
2022/05/13 00:07:00;;;;;;;4.68;0.88;;;11.40;99.90;;;;;;5030973;28;20501;-71
2022/05/13 00:09:56;;;;;;;3.60;1.10;;;11.30;99.90;;;;;;5030977;28;20029;-71
2022/05/13 00:12:11;;;;;;;3.47;1.70;;;11.30;99.90;;;;;;5030159;28;20040;-71
2022/05/13 00:14:37;;;;;;;6.85;1.08;;;11.20;99.90;;;;;;5029567;28;20570;-71
2022/05/13 00:17:02;;;;;;;4.70;1.10;;;11.20;99.90;;;;;;5030168;28;20097;-71
2022/05/13 00:19:28;;;;;;;3.00;1.05;;;;;;;;;;5029670;28;20061;-70
2022/05/13 00:21:54;;;;;;;3.45;0.77;;;;;;;;;;5023853;28;20033;-71
2022/05/13 00:24:20;;;;;;;4.20;1.00;;;11.10;98.20;;;;;;5010874;28;20114;-71
2022/05/13 00:26:46;;;;;;;4.65;0.95;;;;;;;;;;5011323;28;20146;-71
2022/05/13 00:29:11;;;;;;;3.30;1.20;;;;;;;;;;5010813;28;20491;-71
2022/05/13 00:31:38;;;;;;;5.75;1.50;;;11.20;99.90;;;;;;5010758;28;20041;-71
2022/05/13 00:34:04;;;;;;;2.40;1.30;;;11.00;99.50;;;;;;5010921;28;20104;-72
2022/05/13 00:36:30;;;;;;;7.10;1.27;;;11.00;99.90;;;;;;5010770;28;20527;-71
2022/05/13 00:38:55;;;;;;;5.43;1.58;;;10.70;99.90;;;;;;5011079;28;20101;-71
2022/05/13 00:41:21;;;;;;;5.93;1.42;;;;;;;;;;5010639;28;20395;-71
2022/05/13 00:43:51;;;;;;;3.85;0.70;;;10.90;95.60;;;;;;5011101;28;20140;-71
2022/05/13 00:46:18;;;;;;;5.55;1.58;;;10.90;95.70;;;;;;5010305;28;20042;-71
2022/05/13 00:48:45;;;;;;;3.87;0.90;;;10.90;99.90;;;;;;5010832;28;20026;-71
2022/05/13 00:51:14;;;;;;;3.05;1.10;;;10.80;99.90;;;;;;5022693;28;20033;-71
2022/05/13 00:53:40;;;;;;;6.15;1.10;;;10.80;99.90;;;;;;5030505;28;20463;-71
2022/05/13 00:56:06;;;;;;;3.05;1.02;;;10.90;99.90;;;;;;5030453;28;20018;-71
2022/05/13 00:58:34;;;;;;;2.25;1.10;;;10.80;99.90;;;;;;5030540;28;20108;-71
2022/05/13 01:00:59;;;;;;;5.38;1.10;;;10.80;99.90;;;;;;5029654;28;20029;-71
2022/05/13 01:03:25;;;;;;;2.05;0.70;;;10.80;99.90;;;;;;5030693;28;20017;-71
2022/05/13 01:05:55;;;;;;;5.95;1.30;;;10.80;97.20;;;;;;5030140;28;20067;-71
2022/05/13 01:08:21;;;;;;;3.50;1.10;;;10.80;99.90;;;;;;5030331;28;20029;-71
2022/05/13 01:10:48;;;;;;;1.25;0.70;;;10.70;99.90;;;;;;5030213;28;20473;-71
2022/05/13 01:13:20;;;;;;;2.33;0.80;;;10.60;99.00;;;;;;5029846;28;20060;-71
2022/05/13 01:15:48;;;;;;;3.08;0.77;;;9.70;96.50;;;;;;5029085;28;20028;-71
2022/05/13 01:18:30;;;;;;;4.30;1.52;;;10.60;99.50;;;;;;5029931;28;20022;-71
2022/05/13 01:20:57;;;;;;;6.97;1.33;;;10.60;99.90;;;;;;5019797;28;20102;-72
2022/05/13 01:23:26;;;;;;;7.55;1.52;;;10.50;99.90;;;;;;5010118;28;20041;-72
2022/05/13 01:25:57;;;;;;;3.42;1.67;;;10.60;99.90;;;;;;5010313;28;20022;-72
2022/05/13 01:28:33;;;;;;;4.07;1.35;;;10.20;99.90;;;;;;5009615;28;20479;-73
2022/05/13 01:31:03;;;;;;;4.22;1.45;;;10.50;97.30;;;;;;5009985;28;20084;-72
2022/05/13 01:33:29;;;;;;;6.53;1.50;;;10.50;99.90;;;;;;5010270;28;20100;-72
2022/05/13 01:35:58;;;;;;;3.75;0.90;;;11.40;97.70;;;;;;5010082;28;20049;-71
2022/05/13 01:38:27;;;;;;;4.30;1.45;;;10.40;99.90;;;;;;5009961;28;20092;-71
2022/05/13 01:40:53;;;;;;;4.43;1.35;;;;;;;;;;5009744;28;20033;-71
2022/05/13 01:43:20;;;;;;;3.63;1.80;;;10.40;99.90;;;;;;5009093;28;20026;-71
2022/05/13 01:45:46;;;;;;;2.70;1.42;;;;;;;;;;5009954;28;20497;-71
2022/05/13 01:48:12;;;;;;;3.63;1.08;;;;;;;;;;5009594;28;20029;-71
2022/05/13 01:50:38;;;;;;;6.53;1.73;;;10.60;99.90;;;;;;5019631;28;20037;-71
2022/05/13 01:53:05;;;;;;;5.40;1.70;;;10.70;99.90;;;;;;5027766;28;20382;-71
2022/05/13 01:55:31;;;;;;;7.00;1.50;;;;;;;;;;5029516;28;20026;-71
2022/05/13 01:57:57;;;;;;;4.95;1.75;;;10.60;99.90;;;;;;5029289;28;20048;-72
2022/05/13 02:00:23;;;;;;;6.88;1.50;;;;;;;;;;5029170;28;20445;-72
2022/05/13 02:05:33;;;;;;;;;;;10.70;97.80;;;;;;5030060;28;20490;-71
2022/05/13 02:07:59;;;;;;;7.07;1.73;;;;;;;;;;5029017;28;19956;-71
2022/05/13 02:10:25;;;;;;;4.88;1.60;;;;;;;;;;5029229;28;20044;-71
2022/05/13 02:12:50;;;;;;;6.40;1.52;;;10.80;99.90;;;;;;5028734;28;20108;-68
2022/05/13 02:15:16;;;;;;;7.05;1.42;;;11.00;99.90;;;;;;5029052;28;20022;-71
2022/05/13 02:17:42;;;;;;;4.03;1.70;;;10.90;99.90;;;;;;5029435;28;20021;-71
2022/05/13 02:20:10;;;;;;;5.35;1.33;;;10.90;97.80;;;;;;5022872;28;20036;-71
2022/05/13 02:22:36;;;;;;;4.00;1.38;;;;;;;;;;5009587;28;20053;-71
2022/05/13 02:25:02;;;;;;;4.35;1.63;;;;;;;;;;5009078;28;20521;-71
2022/05/13 02:27:28;;;;;;;4.75;1.85;;;;;;;;;;5010946;28;20422;-71
2022/05/13 02:29:53;;;;;;;4.75;1.50;;;11.10;99.90;;;;;;5013493;28;20402;-71
2022/05/13 02:32:19;;;;;;;4.07;1.42;;;;;;;;;;5013121;28;20109;-71
2022/05/13 02:34:45;;;;;;;7.43;1.92;;;11.60;99.90;;;;;;5013717;28;20103;-71
2022/05/13 02:37:10;;;;;;;5.82;1.88;;;10.80;99.90;;;;;;5013198;28;20400;-71
2022/05/13 02:39:36;;;;;;;6.43;1.98;;;11.20;99.90;;;;;;5013219;28;20021;-71
2022/05/13 02:42:01;;;;;;;5.55;1.75;;;11.30;99.90;;;;;;5012617;28;20082;-71
2022/05/13 02:44:27;;;;;;;4.95;1.90;;;11.10;99.20;;;;;;5013187;28;20081;-71
2022/05/13 02:46:53;;;;;;;6.90;2.38;;;;;;;;;;5013302;28;20022;-71
2022/05/13 02:49:19;;;;;;;6.13;1.50;;;;;;;;;;5013817;28;20057;-71
2022/05/13 02:51:46;;;;;;;7.00;2.35;;;11.20;99.90;;;;;;5033019;28;20022;-71
2022/05/13 02:54:11;;;;;;;7.95;2.70;;;11.30;99.90;;;;;;5032454;28;20037;-71
2022/05/13 02:56:38;;;;;;;10.10;2.83;;;11.20;99.90;;;;;;5032184;28;20036;-71
2022/05/13 02:59:04;;;;;;;8.40;2.33;;;;;;;;;;5018449;28;20030;-71
2022/05/13 03:01:32;;;;;;;6.05;2.03;;;10.90;99.90;;;;;;5012387;28;20045;-71
2022/05/13 03:03:58;;;;;;;7.88;2.25;;;11.10;99.90;;;;;;5013226;28;20049;-71
2022/05/13 03:06:25;;;;;;;7.38;2.25;;;11.30;99.90;;;;;;5012391;28;20061;-71
2022/05/13 03:08:51;;;;;;;7.93;3.17;;;11.40;99.90;;;;;;5012764;28;20037;-71
2022/05/13 03:11:17;;;;;;;4.45;2.33;;;11.50;99.90;;;;;;5012089;28;20143;-71
2022/05/13 03:13:43;;;;;;;9.07;2.38;;;11.40;99.90;;;;;;5012660;28;20112;-71
2022/05/13 03:16:19;;;;;;;8.90;3.05;;;11.50;99.90;;;;;;5013872;28;20041;-71
2022/05/13 03:18:46;;;;;;;6.38;2.75;;;11.50;99.90;;;;;;5032159;28;20092;-71
2022/05/13 03:21:12;;;;;;;6.07;2.83;;;;;;;;;;5030571;28;20502;-71
2022/05/13 03:23:42;;;;;;;6.20;2.42;;;11.60;99.90;;;;;;5032391;28;20120;-71
2022/05/13 03:26:08;;;;;;;10.38;2.97;;;11.60;99.90;;;;;;5031251;28;20025;-71
2022/05/13 03:28:33;;;;;;;10.23;3.13;;;11.50;99.90;;;;;;5032602;28;20091;-71
2022/05/13 03:30:59;;;;;;;8.30;3.20;;;;;;;;;;5024569;28;20034;-71
2022/05/13 03:33:25;;;;;;;7.80;2.95;;;11.90;99.90;;;;;;5012231;28;20026;-71
2022/05/13 03:35:50;;;;;;;7.93;3.10;;;11.30;99.90;;;;;;5012245;28;20034;-71
2022/05/13 03:38:16;;;;;;;8.13;3.20;;;11.70;99.90;;;;;;5010102;28;20156;-71
2022/05/13 03:40:41;;;;;;;10.73;4.03;;;11.60;99.90;;;;;;5010464;28;20030;-71
2022/05/13 03:43:07;;;;;;;7.40;3.65;;;11.70;99.90;;;;;;5012000;28;20018;-71
2022/05/13 03:45:34;;;;;;;16.65;3.67;;;11.70;99.90;;;;;;5027750;28;20029;-71
2022/05/13 03:48:00;;;;;;;14.30;4.25;;;;;;;;;;5031679;28;20113;-71
2022/05/13 03:50:27;;;;;;;11.27;4.72;;;11.70;99.90;;;;;;5018560;28;20223;-71
2022/05/13 03:52:52;;;;;;;8.93;3.63;;;11.70;99.90;;;;;;5011906;28;20045;-71
2022/05/13 03:55:18;;;;;;;12.48;3.92;;;11.60;99.90;;;;;;5011341;28;20046;-71
2022/05/13 03:57:44;;;;;;;8.60;2.55;;;11.60;99.90;;;;;;5011450;28;20112;-71
2022/05/13 04:00:10;;;;;;;11.77;3.67;;;;;;;;;;5011649;28;20121;-71
2022/05/13 04:02:37;;;;;;;8.50;3.33;;;11.70;99.90;;;;;;5029733;28;20029;-71
2022/05/13 04:10:32;;;;;;;;;;;11.50;99.90;;;;;;5030684;28;20115;-70
2022/05/13 04:18:26;;;;;;;11.43;3.42;;;11.00;99.90;;;;;;5031370;28;19919;-70
2022/05/13 04:20:52;;;;;;;7.22;3.08;;;11.10;99.90;;;;;;5031188;28;20109;-71
2022/05/13 04:23:21;;;;;;;9.38;4.25;;;11.10;99.90;;;;;;5030292;28;20916;-71
2022/05/13 04:25:47;;;;;;;15.02;4.57;;;11.40;99.90;;;;;;5030956;28;20029;-71
2022/05/13 04:28:12;;;;;;;10.77;4.18;;;11.00;99.90;;;;;;5029249;28;20200;-71
2022/05/13 04:30:38;;;;;;;10.30;4.57;;;;;;;;;;5029965;28;20045;-71
2022/05/13 04:33:04;;;;;;;15.45;4.78;;;11.20;99.90;;;;;;5030701;28;20763;-71
2022/05/13 04:35:30;;;;;;;8.07;4.25;;;;;;;;;;5030706;28;20033;-71
2022/05/13 04:37:56;;;;;;;10.98;4.45;;;11.20;99.90;;;;;;5029130;28;20385;-71
2022/05/13 04:40:22;;;;;;;12.82;4.80;;;;;;;;;;5030538;28;20534;-71
2022/05/13 04:42:50;;;;;;;8.85;3.58;;;11.10;99.90;;;;;;5029389;28;20821;-71
2022/05/13 04:45:25;;;;;;;11.43;4.13;;;11.20;99.90;;;;;;5019776;28;20030;-71
2022/05/13 04:50:36;;;;;;;9.25;3.67;;;;;;;;;;5009748;28;20496;-71
2022/05/13 04:53:03;;;;;;;7.45;3.50;;;11.70;99.90;;;;;;5010299;28;20339;-71
2022/05/13 04:55:29;;;;;;;9.20;4.43;;;11.30;99.90;;;;;;5010866;28;20363;-71
2022/05/13 04:57:54;;;;;;;14.82;4.80;;;11.40;99.90;;;;;;5010598;28;20063;-71
2022/05/13 05:00:20;;;;;;;11.30;5.03;;;11.50;99.90;;;;;;5012805;28;20040;-71
2022/05/13 05:02:46;;;;;;;9.82;5.43;;;11.60;99.90;;;;;;5029033;28;20036;-70
2022/05/13 05:05:11;;;;;;;12.95;5.28;;;;;;;;;;5025689;28;20030;-71
2022/05/13 05:07:37;;;;;;;13.15;6.07;;;11.40;99.90;;;;;;5010344;28;20041;-70
2022/05/13 05:10:03;;;;;;;12.60;5.75;;;11.30;99.90;;;;;;5009779;28;20061;-70
2022/05/13 05:12:29;;;;;;;14.73;6.10;;;;;;;;;;5010564;28;20049;-69
2022/05/13 05:14:55;;;;;;;10.13;5.68;;;;;;;;;;5010359;28;20089;-69
2022/05/13 05:17:21;;;;;;;10.75;5.10;;;11.40;99.90;;;;;;5010079;28;20064;-70
2022/05/13 05:19:46;;;;;;;10.18;5.75;;;11.40;99.90;;;;;;5010288;28;20026;-69
2022/05/13 05:22:12;;;;;;;17.13;6.32;;;11.60;99.90;;;;;;5009625;28;20360;-70
2022/05/13 05:24:38;;;;;;;14.93;6.50;;;11.90;99.90;;;;;;5010286;28;20106;-70
2022/05/13 05:27:05;;;;;;;13.50;7.00;;;12.20;99.90;;;;;;5010126;28;20061;-70
2022/05/13 05:29:30;;;;;;;12.15;6.43;;;12.40;99.90;;;;;;5010055;28;20026;-70
2022/05/13 05:31:56;;;;;;;13.45;5.95;;;12.50;99.90;;;;;;5027451;28;20045;-70
2022/05/13 05:34:21;;;;;;;9.82;5.63;;;12.40;99.90;;;;;;5029561;28;20018;-70
2022/05/13 05:36:47;;;;;;;12.45;6.00;;;;;;;;;;5029389;28;20026;-70
2022/05/13 05:39:13;;;;;;;18.15;6.90;;;;;;;;;;5029725;28;20496;-71
2022/05/13 05:41:39;;;;;;;19.92;6.57;;;12.40;99.90;;;;;;5029736;28;20087;-70
2022/05/13 05:44:05;;;;;;;12.70;6.90;;;;;;;;;;5029432;28;20027;-70
2022/05/13 05:46:30;;;;;;;15.15;6.82;;;12.40;99.90;;;;;;5029847;28;20095;-70
2022/05/13 05:48:56;;;;;;;15.35;7.00;;;12.60;99.90;;;;;;5028991;28;20017;-70
2022/05/13 05:51:21;;;;;;;15.57;6.13;;;12.60;99.90;;;;;;5029509;28;20029;-71
2022/05/13 05:59:15;;;;;;;13.38;5.95;;;13.00;99.90;;;;;;5023745;28;20136;-70
2022/05/13 06:01:41;;;;;;;16.88;7.95;;;13.10;99.90;;;;;;5028405;28;20033;-70
2022/05/13 06:04:06;;;;;;;17.65;8.23;;;13.10;99.90;;;;;;5028922;28;20139;-70
2022/05/13 06:06:32;;;;;;;15.32;7.03;;;13.20;99.90;;;;;;5025558;28;20052;-70
2022/05/13 06:08:59;;;;;;;14.23;7.43;;;13.30;99.90;;;;;;5029096;28;20029;-70
2022/05/13 06:11:26;;;;;;;15.93;7.35;;;13.20;99.90;;;;;;5029237;28;20117;-70
2022/05/13 06:13:53;;;;;;;13.07;8.23;;;13.50;99.90;;;;;;5027823;28;20089;-70
2022/05/13 06:16:19;;;;;;;14.25;7.38;;;;;;;;;;5028820;28;20426;-70
2022/05/13 06:18:45;;;;;;;13.85;6.70;;;13.20;99.90;;;;;;5028879;28;20056;-70
2022/05/13 06:21:11;;;;;;;18.45;8.40;;;13.90;99.90;;;;;;5028662;28;20049;-70
2022/05/13 06:23:36;;;;;;;11.57;6.72;;;13.70;99.90;;;;;;5029370;28;20037;-70
2022/05/13 06:26:02;;;;;;;19.50;7.57;;;13.80;99.90;;;;;;5029259;28;20028;-70
2022/05/13 06:28:28;;;;;;;17.02;7.88;;;14.10;99.90;;;;;;5029033;28;20045;-70
2022/05/13 06:30:54;;;;;;;16.45;8.75;;;14.00;99.90;;;;;;5029116;28;20057;-71
2022/05/13 06:33:22;;;;;;;16.40;6.88;;;;;;;;;;5028781;28;20083;-71
2022/05/13 06:35:48;;;;;;;16.58;6.90;;;14.60;99.90;;;;;;5018571;28;20066;-70
2022/05/13 06:38:20;;;;;;;18.48;9.43;;;14.50;99.90;;;;;;5007848;28;20030;-70
2022/05/13 06:40:53;;;;;;;17.58;8.77;;;14.70;99.90;;;;;;5007807;28;20032;-70
2022/05/13 06:43:18;;;;;;;17.33;9.50;;;14.70;99.90;;;;;;5016043;28;20111;-69
2022/05/13 06:45:44;;;;;;;20.50;9.50;;;14.70;99.90;;;;;;5026932;28;20061;-69
2022/05/13 06:48:10;;;;;;;15.48;9.32;;;14.80;99.90;;;;;;5019308;28;20394;-69
2022/05/13 06:50:37;;;;;;;13.93;9.20;;;14.70;99.90;;;;;;5007202;28;20164;-71
2022/05/13 06:53:03;;;;;;;21.20;10.07;;;14.70;99.90;;;;;;5007157;28;20109;-71
2022/05/13 06:55:29;;;;;;;12.98;9.15;;;;;;;;;;5023385;28;20116;-71
2022/05/13 06:57:55;;;;;;;17.30;8.63;;;;;;;;;;5027040;28;20033;-70
2022/05/13 07:00:21;;;;;;;24.25;11.38;;;14.80;99.90;;;;;;5027057;28;20033;-70
2022/05/13 07:02:46;;;;;;;16.00;9.52;;;14.90;99.90;;;;;;5026335;28;20108;-71
2022/05/13 07:05:13;;;;;;;19.40;10.70;;;14.90;99.90;;;;;;5022732;28;20030;-70
2022/05/13 07:07:39;;;;;;;15.25;8.52;;;15.20;99.90;;;;;;5007324;28;20030;-71
2022/05/13 07:10:06;;;;;;;17.30;10.02;;;15.10;99.90;;;;;;5006933;28;20117;-70
2022/05/13 07:12:34;;;;;;;14.80;8.82;;;15.10;99.90;;;;;;5019928;28;20029;-70
2022/05/13 07:15:02;;;;;;;16.95;8.98;;;15.60;99.90;;;;;;5010563;28;20561;-71
2022/05/13 07:17:27;;;;;;;19.98;9.90;;;15.40;99.70;;;;;;5010220;28;20451;-71
2022/05/13 07:19:53;;;;;;;13.77;9.05;;;15.60;99.90;;;;;;5010775;28;20053;-71
2022/05/13 07:22:19;;;;;;;21.00;11.60;;;15.70;99.90;;;;;;5010120;28;20454;-70
2022/05/13 07:24:45;;;;;;;17.77;8.98;;;15.70;99.30;;;;;;5010332;28;20109;-70
2022/05/13 07:27:11;;;;;;;16.40;9.45;;;15.80;99.20;;;;;;5025621;28;20444;-70
2022/05/13 07:29:36;;;;;;;11.60;8.85;;;15.80;99.00;;;;;;5010297;28;20052;-70
2022/05/13 07:32:02;;;;;;;16.70;9.48;;;15.90;98.90;;;;;;5010020;28;20087;-70
2022/05/13 07:34:27;;;;;;;19.17;8.90;;;16.00;98.70;;;;;;5009896;28;20031;-69
2022/05/13 07:36:54;;;;;;;14.15;9.65;;;16.10;98.60;;;;;;5010572;28;20080;-70
2022/05/13 07:42:07;;;;;;;16.58;8.90;;;16.30;98.30;;;;;;5011558;28;20040;-70
2022/05/13 07:44:34;;;;;;;16.88;10.27;;;16.50;98.10;;;;;;5018821;28;20036;-71
2022/05/13 07:47:00;;;;;;;14.70;9.18;;;16.20;99.90;;;;;;5025613;28;20427;-71
2022/05/13 07:49:26;;;;;;;18.35;10.18;;;16.20;99.90;;;;;;5024874;28;20414;-71
2022/05/13 07:51:51;;;;;;;18.35;9.55;;;16.20;97.70;;;;;;5030772;28;20082;-71
2022/05/13 07:54:17;;;;;;;13.25;9.80;;;16.30;97.70;;;;;;5029595;28;20152;-71
2022/05/13 07:56:42;;;;;;;14.63;8.65;;;16.40;97.50;;;;;;5026311;28;20033;-71
2022/05/13 07:59:08;;;;;;;17.38;8.52;;;16.50;97.40;;;;;;5015568;28;20044;-71
2022/05/13 08:01:33;;;;;;;17.80;8.85;;;16.60;97.30;;;;;;5012494;28;20022;-71
2022/05/13 08:03:59;;;;;;;17.15;8.98;;;;;;;;;;5030818;28;20490;-71
2022/05/13 08:06:25;;;;;;;15.95;8.65;;;16.70;95.90;;;;;;5030295;28;20034;-69
2022/05/13 08:08:56;;;;;;;19.23;9.88;;;16.70;96.90;;;;;;5030607;28;20044;-69
2022/05/13 08:11:22;;;;;;;16.38;8.98;;;16.60;96.70;;;;;;5029289;28;20111;-71
2022/05/13 08:13:48;;;;;;;13.20;6.85;;;16.60;99.90;;;;;;5029969;28;20091;-71
2022/05/13 08:16:17;;;;;;;13.73;6.72;;;16.50;96.70;;;;;;5024422;28;20458;-70
2022/05/13 08:18:43;;;;;;;16.08;7.05;;;16.40;96.90;;;;;;5023466;28;20017;-69
2022/05/13 08:21:08;;;;;;;10.00;6.80;;;16.50;96.80;;;;;;5030167;28;20029;-69
2022/05/13 08:23:34;;;;;;;12.50;7.13;;;16.40;99.90;;;;;;5010511;28;20393;-69
2022/05/13 08:26:00;;;;;;;11.20;6.75;;;16.40;96.80;;;;;;5010318;28;20084;-69
2022/05/13 08:28:26;;;;;;;11.70;6.18;;;16.40;96.80;;;;;;5010123;28;20026;-71
2022/05/13 08:30:52;;;;;;;14.85;8.18;;;16.30;96.90;;;;;;5023753;28;20045;-71
2022/05/13 08:33:18;;;;;;;12.95;6.60;;;16.50;99.90;;;;;;5030022;28;20458;-71
2022/05/13 08:35:57;;;;;;;13.13;6.25;;;16.10;99.90;;;;;;5021359;28;20037;-72
2022/05/13 08:38:26;;;;;;;12.27;6.75;;;16.00;97.70;;;;;;5029509;28;20083;-71
2022/05/13 08:40:57;;;;;;;15.20;6.65;;;15.80;97.60;;;;;;5030479;28;20052;-70
2022/05/13 08:43:24;;;;;;;15.65;7.38;;;15.70;99.90;;;;;;5020165;28;20029;-69
2022/05/13 08:45:52;;;;;;;12.88;5.38;;;15.90;99.90;;;;;;5045075;28;20069;-69
2022/05/13 08:48:32;;;;;;;7.40;3.05;;;16.10;99.90;;;;;;5028513;28;20051;-70
2022/05/13 08:51:03;;;;;;;8.82;1.95;;;16.00;96.40;;;;;;5029858;28;20079;-69
2022/05/13 08:53:41;;;;;;;7.72;2.13;;;16.00;95.50;;;;;;5044490;28;20033;-69
2022/05/13 08:56:10;;;;;;;9.60;1.30;;;16.10;96.10;;;;;;5028253;28;20497;-71
2022/05/13 08:59:13;;;;;;;6.45;1.45;;;16.30;94.70;;;;;;5025990;28;20065;-71
2022/05/13 09:01:48;;;;;;;3.40;0.98;;;16.50;94.00;;;;;;5029663;28;20075;-71
2022/05/13 09:04:23;;;;;;;9.15;2.63;;;16.70;94.40;;;;;;5029513;28;20026;-69
2022/05/13 09:06:54;;;;;;;3.15;1.00;;;16.90;94.20;;;;;;5029390;28;20037;-69
2022/05/13 09:09:20;;;;;;;7.03;1.50;;;17.20;93.40;;;;;;5029184;28;20334;-68
2022/05/13 09:11:56;;;;;;;7.18;1.67;;;17.20;93.10;;;;;;5027974;28;20029;-71
2022/05/13 09:14:45;;;;;;;4.40;1.27;;;17.40;92.10;;;;;;5015343;28;20077;-71
2022/05/13 09:17:42;;;;;;;3.53;1.30;;;17.20;92.00;;;;;;5009509;28;20026;-71
2022/05/13 09:20:15;;;;;;;2.53;0.90;;;17.10;91.60;;;;;;5023431;28;20256;-71
2022/05/13 09:22:52;;;;;;;3.90;1.45;;;17.10;92.50;;;;;;5025365;28;20049;-71
2022/05/13 09:25:35;;;;;;;4.22;1.30;;;17.00;92.40;;;;;;5029010;28;20490;-71
2022/05/13 09:28:09;;;;;;;6.25;1.73;;;17.20;92.50;;;;;;5027690;28;20033;-71
2022/05/13 09:30:41;;;;;;;4.88;1.13;;;17.50;92.20;;;;;;5029228;28;20052;-71
2022/05/13 09:33:30;;;;;;;4.60;1.13;;;17.10;91.80;;;;;;5028959;28;20096;-71
2022/05/13 09:35:59;;;;;;;4.20;1.10;;;17.20;91.30;;;;;;5027362;28;20029;-71
2022/05/13 09:38:49;;;;;;;3.97;1.48;;;17.00;91.90;;;;;;5029182;28;20120;-71
2022/05/13 09:41:28;;;;;;;7.13;1.40;;;17.20;91.10;;;;;;5028405;28;20369;-71
2022/05/13 09:43:55;;;;;;;6.53;1.80;;;17.30;90.80;;;;;;5028962;28;20033;-71
2022/05/13 09:46:33;;;;;;;4.68;1.27;;;17.30;91.20;;;;;;5028777;28;20033;-71
2022/05/13 09:49:15;;;;;;;3.05;1.25;;;17.40;91.40;;;;;;5018020;28;20443;-72
2022/05/13 09:51:54;;;;;;;4.68;1.25;;;17.60;91.00;;;;;;5012847;28;20124;-71
2022/05/13 09:54:31;;;;;;;5.38;1.20;;;17.70;90.90;;;;;;5008692;28;20025;-71
2022/05/13 09:57:08;;;;;;;2.05;0.90;;;17.70;90.80;;;;;;5008698;28;20076;-71
2022/05/13 10:00:03;;;;;;;5.63;1.27;;;17.90;90.60;;;;;;5007545;28;20487;-71
2022/05/13 10:02:29;;;;;;;5.35;1.30;;;17.90;89.20;;;;;;5026488;28;20037;-71
2022/05/13 10:05:23;;;;;;;6.90;1.40;;;18.10;89.70;;;;;;5028709;28;20037;-72
2022/05/13 10:07:51;;;;;;;2.80;1.05;;;18.20;88.10;;;;;;5027221;28;20094;-69
2022/05/13 10:16:04;;;;;;;7.88;2.40;;;18.10;90.20;;;;;;5022289;28;20068;-71
2022/05/13 10:18:32;;;;;;;5.80;1.45;;;18.00;90.30;;;;;;5008706;28;20121;-71
2022/05/13 10:21:06;;;;;;;8.00;1.95;;;18.00;90.70;;;;;;5021014;28;20033;-71
2022/05/13 10:24:01;;;;;;;4.55;1.45;;;18.10;90.20;;;;;;5026835;28;20047;-71
2022/05/13 10:26:38;;;;;;;5.55;1.52;;;18.30;90.80;;;;;;5020299;28;20426;-71
2022/05/13 10:29:10;;;;;;;6.00;1.50;;;18.60;88.90;;;;;;5028322;28;20171;-70
2022/05/13 10:31:41;;;;;;;3.40;1.30;;;18.60;90.00;;;;;;5028305;28;20041;-69
2022/05/13 10:34:29;;;;;;;5.95;1.60;;;18.50;89.70;;;;;;5028597;28;20018;-71
2022/05/13 10:37:10;;;;;;;5.50;1.58;;;18.30;90.10;;;;;;5027658;28;20025;-71
2022/05/13 10:39:46;;;;;;;7.63;1.70;;;18.20;88.30;;;;;;5019109;28;20370;-70
2022/05/13 10:42:25;;;;;;;4.75;1.25;;;18.10;90.10;;;;;;5008698;28;20030;-69
2022/05/13 10:45:00;;;;;;;3.90;2.17;;;18.00;90.20;;;;;;5025627;28;20038;-68
2022/05/13 10:47:41;;;;;;;4.18;0.93;;;18.00;88.40;;;;;;5027451;28;20127;-68
2022/05/13 10:50:16;;;;;;;5.32;0.75;;;17.90;88.40;;;;;;5030832;28;20030;-70
2022/05/13 10:52:57;;;;;;;7.45;1.52;;;18.00;87.80;;;;;;5032145;28;20132;-68
2022/05/13 10:56:00;;;;;;;3.70;0.77;;;18.10;87.40;;;;;;5028092;28;20080;-68
2022/05/13 10:58:35;;;;;;;3.45;1.05;;;18.40;86.70;;;;;;5031924;28;20075;-68
2022/05/13 11:01:22;;;;;;;8.43;1.98;;;18.60;85.30;;;;;;5031706;28;20150;-68
2022/05/13 11:03:58;;;;;;;5.13;0.95;;;18.90;84.40;;;;;;5031896;28;20051;-69
2022/05/13 11:06:36;;;;;;;4.70;0.93;;;19.00;85.50;;;;;;5031739;28;20498;-69
2022/05/13 11:09:26;;;;;;;3.22;1.15;;;19.00;82.10;;;;;;5031613;28;20144;-68
2022/05/13 11:11:57;;;;;;;4.43;0.90;;;19.00;83.20;;;;;;5031859;28;20041;-71
2022/05/13 11:14:49;;;;;;;4.63;0.90;;;19.10;83.90;;;;;;5031446;28;20037;-68
2022/05/13 11:17:44;;;;;;;5.18;1.27;;;19.20;82.80;;;;;;5011565;28;20068;-71
2022/05/13 11:20:28;;;;;;;4.20;0.90;;;19.30;82.50;;;;;;4970285;28;20046;-71
2022/05/13 11:22:59;;;;;;;8.57;1.27;;;19.30;81.50;;;;;;4970413;28;20037;-70
2022/05/13 11:28:45;;;;;;;3.23;0.90;;;19.00;81.00;;;;;;4970089;28;20780;-71
2022/05/13 11:31:40;;;;;;;4.77;1.23;;;18.90;82.30;;;;;;4969999;28;20500;-71
2022/05/13 11:34:23;;;;;;;8.95;1.77;;;19.30;80.10;;;;;;4989576;28;20038;-71
2022/05/13 11:37:05;;;;;;;4.93;0.95;;;19.40;81.50;;;;;;4989170;28;20200;-71
2022/05/13 11:39:44;;;;;;;5.82;1.00;;;19.50;79.40;;;;;;4989606;28;20023;-71
2022/05/13 11:42:29;;;;;;;4.10;1.02;;;19.50;81.00;;;;;;4989341;28;20805;-71
2022/05/13 11:45:25;;;;;;;4.40;1.13;;;19.50;80.70;;;;;;4988716;28;20034;-71
2022/05/13 11:48:20;;;;;;;4.30;1.05;;;19.20;80.90;;;;;;4972241;28;20026;-71
2022/05/13 11:50:45;;;;;;;6.22;1.55;;;19.20;81.20;;;;;;4988998;28;20042;-71
2022/05/13 11:53:11;;;;;;;2.97;0.85;;;19.20;79.90;;;;;;4988846;28;20221;-71
2022/05/13 11:55:42;;;;;;;5.35;1.00;;;19.20;79.80;;;;;;4989156;28;20026;-71
2022/05/13 11:58:28;;;;;;;3.35;0.90;;;19.40;79.00;;;;;;5015748;28;20494;-71
2022/05/13 12:00:53;;;;;;;4.97;1.08;;;19.50;79.20;;;;;;5030849;28;20029;-71
2022/05/13 12:03:19;;;;;;;3.70;0.90;;;19.50;78.80;;;;;;5030694;28;20429;-70
2022/05/13 12:05:57;;;;;;;2.28;0.65;;;19.70;77.60;;;;;;5030748;28;20025;-71
2022/05/13 12:08:45;;;;;;;6.10;0.93;;;19.90;76.00;;;;;;5030418;28;20057;-70
2022/05/13 12:11:35;;;;;;;8.10;1.80;;;19.90;75.50;;;;;;5030355;28;20073;-71
2022/05/13 12:14:26;;;;;;;5.45;1.27;;;19.70;75.80;;;;;;5030250;28;20044;-73
2022/05/13 12:17:29;;;;;;;5.03;1.17;;;19.80;75.80;;;;;;5010758;28;20503;-73
2022/05/13 12:20:13;;;;;;;4.38;1.17;;;20.00;75.80;;;;;;5011052;28;20061;-72
2022/05/13 12:23:17;;;;;;;3.38;1.15;;;20.10;74.00;;;;;;5010118;28;20045;-70
2022/05/13 12:25:49;;;;;;;1.52;0.65;;;20.20;74.30;;;;;;5010811;28;20037;-71
2022/05/13 12:28:14;;;;;;;2.47;1.15;;;20.30;75.10;;;;;;5009278;28;20044;-70
2022/05/13 12:30:46;;;;;;;4.07;0.70;;;20.40;73.90;;;;;;5010387;28;20431;-71
2022/05/13 12:33:17;;;;;;;6.93;1.13;;;20.40;73.50;;;;;;5010375;28;20022;-71
2022/05/13 12:38:32;;;;;;;2.20;0.77;;;20.40;73.80;;;;;;5010736;28;20127;-71
2022/05/13 12:41:14;;;;;;;1.08;0.52;;;20.20;71.80;;;;;;5013482;28;20060;-71
2022/05/13 12:43:54;;;;;;;1.85;0.70;;;20.50;72.90;;;;;;5029106;28;20446;-72
2022/05/13 12:46:40;;;;;;;0.85;0.60;;;20.60;72.50;;;;;;5024027;28;20045;-71
2022/05/13 12:49:11;;;;;;;2.58;0.50;;;20.40;72.40;;;;;;5028980;28;20018;-71
2022/05/13 12:51:58;;;;;;;4.25;0.90;;;20.20;73.20;;;;;;5028991;28;20044;-71
2022/05/13 12:54:27;;;;;;;4.93;0.60;;;20.20;73.00;;;;;;5025731;28;20023;-71
2022/05/13 12:56:59;;;;;;;2.70;0.60;;;20.10;72.90;;;;;;5017126;28;20104;-71
2022/05/13 12:59:29;;;;;;;6.15;0.90;;;20.30;73.20;;;;;;5010539;28;20041;-71
2022/05/13 13:02:00;;;;;;;5.18;0.98;;;20.40;72.70;;;;;;5029968;28;20021;-71
2022/05/13 13:04:29;;;;;;;3.72;1.52;;;20.60;72.50;;;;;;5029328;28;20087;-71
2022/05/13 13:07:06;;;;;;;2.38;0.90;;;20.70;71.50;;;;;;5029988;28;20117;-72
2022/05/13 13:09:34;;;;;;;4.55;1.02;;;20.80;71.90;;;;;;5029388;28;20123;-71
2022/05/13 13:12:06;;;;;;;3.38;1.52;;;20.80;70.90;;;;;;5023713;28;20144;-71
2022/05/13 13:14:46;;;;;;;7.80;1.27;;;20.70;70.70;;;;;;5029320;28;20073;-70
2022/05/13 13:17:27;;;;;;;2.17;1.25;;;19.10;69.60;;;;;;5029456;28;20112;-71
2022/05/13 13:19:58;;;;;;;4.65;0.88;;;20.50;70.50;;;;;;5028089;28;20492;-71
2022/05/13 13:22:27;;;;;;;4.63;1.05;;;20.50;72.50;;;;;;5029590;28;20024;-71
2022/05/13 13:24:53;;;;;;;4.70;1.50;;;20.40;72.40;;;;;;5029256;28;20135;-71
2022/05/13 13:27:31;;;;;;;4.57;1.85;;;20.40;71.90;;;;;;5027668;28;20117;-71
2022/05/13 13:29:58;;;;;;;4.20;1.17;;;20.30;73.30;;;;;;5029466;28;20120;-71
2022/05/13 13:32:24;;;;;;;4.82;1.40;;;20.30;72.60;;;;;;5029406;28;20409;-71
2022/05/13 13:34:57;;;;;;;2.65;1.90;;;20.50;72.60;;;;;;5028332;28;20026;-71
2022/05/13 13:37:27;;;;;;;9.32;1.85;;;20.80;70.10;;;;;;5029037;28;20070;-71
2022/05/13 13:39:53;;;;;;;3.67;1.65;;;20.90;71.40;;;;;;5027972;28;20045;-71
2022/05/13 13:42:20;;;;;;;5.28;1.98;;;21.00;71.60;;;;;;5014325;28;20038;-71
2022/05/13 13:45:01;;;;;;;4.93;1.55;;;21.10;71.30;;;;;;5009155;28;20052;-71
2022/05/13 13:47:31;;;;;;;4.32;1.15;;;21.20;71.70;;;;;;5009089;28;20091;-71
2022/05/13 13:49:57;;;;;;;7.25;1.35;;;21.40;71.00;;;;;;5009396;28;20038;-69